createdAt,value
2018-03-06T00:00:48.157Z,25.77
2018-03-06T00:03:17.554Z,30.43
2018-03-06T00:05:45.689Z,26.97
2018-03-06T00:08:13.964Z,28.20
2018-03-06T00:10:42.099Z,26.93
2018-03-06T00:13:11.025Z,28.90
2018-03-06T00:15:39.159Z,28.00
2018-03-06T00:18:08.096Z,25.60
2018-03-06T00:20:36.236Z,29.43
2018-03-06T00:23:05.156Z,25.90
2018-03-06T00:25:33.311Z,25.80
2018-03-06T00:28:01.473Z,33.37
2018-03-06T00:30:30.373Z,25.97
2018-03-06T00:32:59.294Z,32.33
2018-03-06T00:35:27.428Z,27.70
2018-03-06T00:37:56.364Z,27.73
2018-03-06T00:40:24.486Z,30.30
2018-03-06T00:42:52.645Z,28.00
2018-03-06T00:45:21.652Z,32.03
2018-03-06T00:47:50.560Z,27.83
2018-03-06T00:50:19.758Z,30.87
2018-03-06T00:52:47.919Z,32.87
2018-03-06T00:55:16.822Z,33.13
2018-03-06T00:57:45.713Z,28.93
2018-03-06T01:00:14.640Z,24.93
2018-03-06T01:02:42.785Z,31.53
2018-03-06T01:05:10.984Z,28.00
2018-03-06T01:07:39.122Z,27.40
2018-03-06T01:10:08.043Z,37.23
2018-03-06T01:12:36.177Z,26.07
2018-03-06T01:15:05.101Z,27.27
2018-03-06T01:17:33.235Z,32.00
2018-03-06T01:20:01.375Z,31.27
2018-03-06T01:22:29.508Z,31.57
2018-03-06T01:25:00.261Z,31.77
2018-03-06T01:27:28.400Z,36.03
2018-03-06T01:29:57.312Z,31.10
2018-03-06T01:32:26.901Z,34.40
2018-03-06T01:34:55.811Z,30.63
2018-03-06T01:37:23.952Z,34.10
2018-03-06T01:39:52.108Z,30.57
2018-03-06T01:42:20.249Z,32.03
2018-03-06T01:44:48.427Z,24.60
2018-03-06T01:47:16.566Z,27.07
2018-03-06T01:49:44.728Z,28.20
2018-03-06T01:52:13.636Z,33.03
2018-03-06T01:54:41.802Z,27.20
2018-03-06T01:57:09.953Z,30.87
2018-03-06T01:59:38.104Z,31.07
2018-03-06T02:02:06.229Z,31.30
2018-03-06T02:04:35.147Z,29.27
2018-03-06T02:07:03.295Z,35.90
2018-03-06T02:09:31.433Z,27.97
2018-03-06T02:11:59.608Z,33.47
2018-03-06T02:14:27.747Z,33.50
2018-03-06T02:16:57.360Z,35.33
2018-03-06T02:19:25.509Z,32.33
2018-03-06T02:21:53.652Z,36.97
2018-03-06T02:24:22.557Z,34.03
2018-03-06T02:26:51.481Z,31.00
2018-03-06T02:29:19.649Z,35.60
2018-03-06T02:31:47.816Z,40.50
2018-03-06T02:34:15.924Z,31.77
2018-03-06T02:36:44.757Z,32.70
2018-03-06T02:39:13.666Z,40.10
2018-03-06T02:41:41.812Z,38.57
2018-03-06T02:44:10.703Z,33.60
2018-03-06T02:46:39.736Z,35.37
2018-03-06T02:49:08.306Z,31.27
2018-03-06T02:51:36.474Z,35.10
2018-03-06T02:54:04.607Z,28.87
2018-03-06T02:56:32.744Z,36.33
2018-03-06T02:59:00.885Z,35.00
2018-03-06T03:01:29.802Z,29.93
2018-03-06T03:03:57.935Z,33.13
2018-03-06T03:06:26.864Z,29.90
2018-03-06T03:08:54.987Z,35.50
2018-03-06T03:11:23.124Z,41.03
2018-03-06T03:13:51.274Z,32.97
2018-03-06T03:16:19.434Z,33.00
2018-03-06T03:18:48.337Z,36.00
2018-03-06T03:21:16.552Z,33.10
2018-03-06T03:23:45.881Z,40.33
2018-03-06T03:26:14.035Z,39.60
2018-03-06T03:28:42.177Z,35.17
2018-03-06T03:31:10.691Z,43.13
2018-03-06T03:33:38.825Z,37.20
2018-03-06T03:36:06.962Z,35.93
2018-03-06T03:38:35.910Z,38.73
2018-03-06T03:41:04.047Z,32.37
2018-03-06T03:43:32.308Z,35.77
2018-03-06T03:46:01.220Z,37.10
2018-03-06T03:48:29.388Z,31.60
2018-03-06T03:50:58.288Z,36.50
2018-03-06T03:53:26.452Z,42.70
2018-03-06T03:55:54.583Z,40.70
2018-03-06T03:58:23.177Z,34.97
2018-03-06T04:00:51.331Z,36.37
2018-03-06T04:03:19.483Z,31.13
2018-03-06T04:05:47.611Z,29.20
2018-03-06T04:08:16.347Z,37.17
2018-03-06T04:10:44.486Z,41.20
2018-03-06T04:13:13.428Z,31.20
2018-03-06T04:15:41.560Z,36.13
2018-03-06T04:18:09.719Z,39.80
2018-03-06T04:20:38.620Z,37.77
2018-03-06T04:23:07.965Z,35.80
2018-03-06T04:25:36.126Z,37.10
2018-03-06T04:28:04.812Z,28.87
2018-03-06T04:30:34.521Z,39.77
2018-03-06T04:33:02.684Z,34.70
2018-03-06T04:35:30.816Z,41.23
2018-03-06T04:38:00.194Z,31.03
2018-03-06T04:40:28.337Z,35.20
2018-03-06T04:42:56.504Z,46.93
2018-03-06T04:45:24.651Z,40.53
2018-03-06T04:47:53.592Z,35.20
2018-03-06T04:50:21.722Z,36.87
2018-03-06T04:52:51.846Z,41.43
2018-03-06T04:55:21.478Z,40.80
2018-03-06T04:57:49.649Z,37.33
2018-03-06T05:00:17.805Z,41.50
2018-03-06T05:02:46.733Z,40.03
2018-03-06T05:05:14.885Z,38.07
2018-03-06T05:07:43.076Z,42.37
2018-03-06T05:10:11.218Z,37.20
2018-03-06T05:12:39.419Z,37.83
2018-03-06T05:15:07.919Z,39.23
2018-03-06T05:17:36.332Z,41.57
2018-03-06T05:20:04.543Z,36.10
2018-03-06T05:22:32.699Z,41.73
2018-03-06T05:25:01.926Z,41.77
2018-03-06T05:27:30.813Z,43.63
2018-03-06T05:29:58.976Z,42.93
2018-03-06T05:32:27.112Z,47.03
2018-03-06T05:34:55.713Z,49.77
2018-03-06T05:37:24.631Z,34.63
2018-03-06T05:39:52.800Z,37.53
2018-03-06T05:42:22.272Z,38.20
2018-03-06T05:44:52.400Z,34.93
2018-03-06T05:47:20.980Z,36.87
2018-03-06T05:49:49.151Z,39.80
2018-03-06T05:52:17.275Z,44.23
2018-03-06T05:54:45.460Z,41.27
2018-03-06T05:57:14.367Z,38.97
2018-03-06T05:59:42.536Z,42.17
2018-03-06T06:02:11.133Z,43.43
2018-03-06T06:04:39.300Z,35.40
2018-03-06T06:07:07.913Z,36.40
2018-03-06T06:09:36.840Z,35.23
2018-03-06T06:12:05.812Z,53.37
2018-03-06T06:14:33.971Z,41.97
2018-03-06T06:17:02.104Z,37.03
2018-03-06T06:19:31.545Z,36.87
2018-03-06T06:21:59.669Z,36.57
2018-03-06T06:24:29.205Z,39.10
2018-03-06T06:26:57.314Z,36.90
2018-03-06T06:29:26.223Z,38.00
2018-03-06T06:31:54.351Z,47.60
2018-03-06T06:34:22.495Z,42.50
2018-03-06T06:36:50.608Z,44.33
2018-03-06T06:39:18.773Z,39.07
2018-03-06T06:41:46.899Z,45.40
2018-03-06T06:44:14.995Z,42.37
2018-03-06T06:46:43.572Z,38.00
2018-03-06T06:49:11.706Z,46.40
2018-03-06T06:51:40.621Z,40.43
2018-03-06T06:54:08.832Z,36.90
2018-03-06T06:56:36.964Z,34.23
2018-03-06T06:59:06.248Z,39.70
2018-03-06T07:01:35.513Z,32.20
2018-03-06T07:04:03.634Z,43.53
2018-03-06T07:06:31.764Z,34.07
2018-03-06T07:09:01.051Z,32.90
2018-03-06T07:11:29.981Z,37.37
2018-03-06T07:13:58.862Z,35.90
2018-03-06T07:16:28.015Z,30.67
2018-03-06T07:18:56.138Z,37.97
2018-03-06T07:21:25.046Z,35.50
2018-03-06T07:23:53.155Z,30.23
2018-03-06T07:26:21.300Z,31.40
2018-03-06T07:28:49.420Z,33.10
2018-03-06T07:31:18.601Z,34.47
2018-03-06T07:33:46.721Z,36.20
2018-03-06T07:36:16.397Z,30.70
2018-03-06T07:38:44.533Z,41.57
2018-03-06T07:41:12.776Z,29.93
2018-03-06T07:43:41.651Z,32.97
2018-03-06T07:46:12.609Z,34.40
2018-03-06T07:48:41.494Z,28.70
2018-03-06T07:51:10.463Z,32.07
2018-03-06T07:53:38.547Z,34.70
2018-03-06T07:56:06.806Z,32.70
2018-03-06T07:58:34.950Z,31.40
2018-03-06T08:01:03.474Z,33.70
2018-03-06T08:03:31.602Z,34.43
2018-03-06T08:05:59.757Z,34.43
2018-03-06T08:08:27.881Z,36.87
2018-03-06T08:10:56.496Z,34.93
2018-03-06T08:13:24.631Z,32.13
2018-03-06T08:15:54.604Z,30.37
2018-03-06T08:18:22.731Z,34.57
2018-03-06T08:20:51.839Z,34.07
2018-03-06T08:23:20.975Z,29.37
2018-03-06T08:25:49.456Z,30.90
2018-03-06T08:28:17.588Z,33.90
2018-03-06T08:30:45.735Z,30.73
2018-03-06T08:33:13.847Z,33.83
2018-03-06T08:35:42.770Z,33.77
2018-03-06T08:38:10.900Z,37.23
2018-03-06T08:40:39.481Z,33.43
2018-03-06T08:43:07.626Z,35.30
2018-03-06T08:45:36.220Z,36.63
2018-03-06T08:48:04.388Z,37.63
2018-03-06T08:50:32.534Z,39.70
2018-03-06T08:53:00.658Z,36.73
2018-03-06T08:55:29.598Z,38.10
2018-03-06T08:57:58.189Z,39.07
2018-03-06T09:00:26.338Z,38.30
2018-03-06T09:02:55.234Z,38.83
2018-03-06T09:05:23.394Z,38.70
2018-03-06T09:07:52.294Z,41.30
2018-03-06T09:10:21.204Z,40.60
2018-03-06T09:12:49.334Z,39.93
2018-03-06T09:15:17.481Z,50.83
2018-03-06T09:17:45.605Z,40.50
2018-03-06T09:20:14.521Z,54.10
2018-03-06T09:22:42.653Z,46.70
2018-03-06T09:25:11.571Z,42.07
2018-03-06T09:27:39.714Z,47.43
2018-03-06T09:30:07.832Z,44.20
2018-03-06T09:32:37.112Z,44.93
2018-03-06T09:35:05.234Z,50.93
2018-03-06T09:37:33.390Z,56.43
2018-03-06T09:40:01.517Z,51.67
2018-03-06T09:42:30.437Z,73.50
2018-03-06T09:44:58.561Z,53.00
2018-03-06T09:47:26.717Z,57.03
2018-03-06T09:49:54.862Z,59.83
2018-03-06T09:52:23.022Z,55.30
2018-03-06T09:54:51.146Z,53.27
2018-03-06T09:57:19.299Z,54.40
2018-03-06T09:59:47.425Z,60.23
2018-03-06T10:02:15.905Z,65.87
2018-03-06T10:04:44.794Z,72.83
2018-03-06T10:07:13.754Z,57.67
2018-03-06T10:09:42.373Z,61.97
2018-03-06T10:12:11.326Z,56.87
2018-03-06T10:14:39.486Z,70.47
2018-03-06T10:17:07.677Z,61.00
2018-03-06T10:19:35.838Z,62.67
2018-03-06T10:22:05.301Z,63.47
2018-03-06T10:24:34.225Z,71.13
2018-03-06T10:27:02.418Z,66.03
2018-03-06T10:29:30.578Z,66.17
2018-03-06T10:31:58.770Z,66.73
2018-03-06T10:34:26.926Z,68.43
2018-03-06T10:36:55.119Z,68.07
2018-03-06T10:39:23.284Z,69.27
2018-03-06T10:41:51.466Z,64.93
2018-03-06T10:44:19.627Z,67.43
2018-03-06T10:46:47.815Z,65.37
2018-03-06T10:49:16.030Z,65.67
2018-03-06T10:51:44.982Z,65.43
2018-03-06T10:54:13.142Z,69.13
2018-03-06T10:56:41.337Z,75.27
2018-03-06T10:59:09.500Z,78.93
2018-03-06T11:01:37.687Z,73.53
2018-03-06T11:04:05.846Z,72.50
2018-03-06T11:06:34.001Z,65.57
2018-03-06T11:09:02.132Z,74.20
2018-03-06T11:11:30.277Z,74.87
2018-03-06T11:13:59.204Z,58.10
2018-03-06T11:16:28.130Z,63.87
2018-03-06T11:18:56.259Z,60.13
2018-03-06T11:21:24.850Z,68.97
2018-03-06T11:23:53.440Z,64.03
2018-03-06T11:26:22.349Z,72.83
2018-03-06T11:28:50.486Z,59.50
2018-03-06T11:31:19.135Z,52.50
2018-03-06T11:33:47.253Z,55.67
2018-03-06T11:36:16.161Z,53.50
2018-03-06T11:38:44.277Z,52.83
2018-03-06T11:41:12.441Z,57.67
2018-03-06T11:43:40.569Z,52.50
2018-03-06T11:46:09.481Z,55.93
2018-03-06T11:48:37.610Z,54.00
2018-03-06T11:51:05.756Z,50.20
2018-03-06T11:53:33.876Z,60.03
2018-03-06T11:56:02.815Z,56.27
2018-03-06T11:58:31.708Z,51.37
2018-03-06T12:00:59.832Z,50.23
2018-03-06T12:03:28.741Z,47.83
2018-03-06T12:05:56.912Z,54.77
2018-03-06T12:08:25.056Z,51.60
2018-03-06T12:10:53.189Z,52.17
2018-03-06T12:13:21.332Z,55.47
2018-03-06T12:15:49.454Z,51.87
2018-03-06T12:18:17.597Z,53.63
2018-03-06T12:20:46.424Z,48.03
2018-03-06T12:23:14.577Z,50.17
2018-03-06T12:25:42.705Z,50.57
2018-03-06T12:28:11.624Z,59.83
2018-03-06T12:30:39.753Z,54.20
2018-03-06T12:33:07.898Z,56.00
2018-03-06T12:35:36.021Z,53.80
2018-03-06T12:38:04.180Z,58.07
2018-03-06T12:40:33.089Z,51.77
2018-03-06T12:43:01.243Z,59.77
2018-03-06T12:45:30.134Z,57.20
2018-03-06T12:47:59.052Z,60.57
2018-03-06T12:50:27.185Z,68.70
2018-03-06T12:52:55.337Z,56.83
2018-03-06T12:55:23.462Z,57.87
2018-03-06T12:57:51.618Z,57.50
2018-03-06T13:00:20.513Z,58.33
2018-03-06T13:02:49.445Z,58.50
2018-03-06T13:05:17.592Z,51.80
2018-03-06T13:07:45.736Z,54.20
2018-03-06T13:10:13.861Z,59.20
2018-03-06T13:12:42.014Z,61.73
2018-03-06T13:15:10.141Z,67.03
2018-03-06T13:17:39.125Z,78.33
2018-03-06T13:20:07.249Z,69.20
2018-03-06T13:22:36.158Z,66.93
2018-03-06T13:25:04.282Z,68.93
2018-03-06T13:27:32.440Z,78.87
2018-03-06T13:30:00.695Z,81.17
2018-03-06T13:32:28.896Z,72.07
2018-03-06T13:34:57.153Z,81.10
2018-03-06T13:37:26.132Z,80.83
2018-03-06T13:39:54.518Z,88.30
2018-03-06T13:42:22.880Z,87.40
2018-03-06T13:44:51.722Z,94.13
2018-03-06T13:47:19.874Z,91.00
2018-03-06T13:49:47.996Z,84.93
2018-03-06T13:52:16.961Z,90.03
2018-03-06T13:54:45.054Z,99.27
2018-03-06T13:57:14.000Z,92.17
2018-03-06T13:59:42.177Z,93.17
2018-03-06T14:02:10.309Z,98.40
2018-03-06T14:04:38.437Z,105.60
2018-03-06T14:07:06.602Z,115.87
2018-03-06T14:09:34.734Z,122.63
2018-03-06T14:12:02.906Z,110.10
2018-03-06T14:14:31.037Z,119.83
2018-03-06T14:16:59.195Z,104.77
2018-03-06T14:19:28.085Z,99.50
2018-03-06T14:21:56.229Z,87.40
2018-03-06T14:24:24.379Z,99.17
2018-03-06T14:26:52.505Z,101.47
2018-03-06T14:29:20.665Z,115.47
2018-03-06T14:31:49.657Z,101.63
2018-03-06T14:34:17.813Z,109.40
2018-03-06T14:36:45.950Z,134.07
2018-03-06T14:39:14.874Z,129.17
2018-03-06T14:41:43.001Z,123.93
2018-03-06T14:44:11.168Z,121.20
2018-03-06T14:46:39.293Z,121.07
2018-03-06T14:49:07.442Z,141.73
2018-03-06T14:51:36.333Z,135.00
2018-03-06T14:54:05.249Z,115.10
2018-03-06T14:56:33.368Z,119.17
2018-03-06T14:59:01.574Z,118.67
2018-03-06T15:01:30.556Z,124.40
2018-03-06T15:03:58.707Z,125.10
2018-03-06T15:06:26.837Z,127.73
2018-03-06T15:08:54.981Z,131.77
2018-03-06T15:11:23.870Z,125.93
2018-03-06T15:13:53.081Z,129.07
2018-03-06T15:16:21.981Z,123.07
2018-03-06T15:18:50.130Z,130.23
2018-03-06T15:21:18.263Z,119.47
2018-03-06T15:23:47.850Z,117.20
2018-03-06T15:26:15.976Z,113.67
2018-03-06T15:28:44.347Z,129.53
2018-03-06T15:31:12.558Z,133.57
2018-03-06T15:33:42.149Z,123.53
2018-03-06T15:36:13.358Z,126.30
2018-03-06T15:38:42.106Z,135.57
2018-03-06T15:41:13.845Z,128.83
2018-03-06T15:43:43.833Z,122.87
2018-03-06T15:46:13.744Z,125.97
2018-03-06T15:48:42.770Z,125.43
2018-03-06T15:51:12.361Z,136.50
2018-03-06T15:53:41.304Z,122.73
2018-03-06T15:56:09.425Z,134.60
2018-03-06T15:58:38.733Z,133.50
2018-03-06T16:01:07.321Z,133.53
2018-03-06T16:03:35.943Z,133.30
2018-03-06T16:06:04.266Z,124.43
2018-03-06T16:08:32.429Z,128.43
2018-03-06T16:11:00.562Z,135.87
2018-03-06T16:13:28.706Z,122.97
2018-03-06T16:15:57.611Z,126.83
2018-03-06T16:18:26.523Z,118.97
2018-03-06T16:20:54.705Z,128.30
2018-03-06T16:23:22.869Z,132.60
2018-03-06T16:25:50.989Z,131.67
2018-03-06T16:28:19.557Z,126.00
2018-03-06T16:30:47.674Z,126.27
2018-03-06T16:33:16.619Z,140.53
2018-03-06T16:35:44.745Z,143.73
2018-03-06T16:38:13.658Z,135.80
2018-03-06T16:40:42.277Z,145.47
2018-03-06T16:43:12.368Z,150.03
2018-03-06T16:45:40.506Z,135.07
2018-03-06T16:48:09.425Z,144.23
2018-03-06T16:50:37.561Z,180.20
2018-03-06T16:53:06.141Z,232.90
2018-03-06T16:55:34.742Z,245.67
2018-03-06T16:58:03.666Z,199.10
2018-03-06T17:00:31.792Z,178.83
2018-03-06T17:02:59.914Z,152.33
2018-03-06T17:05:28.077Z,135.30
2018-03-06T17:07:56.842Z,154.67
2018-03-06T17:10:25.753Z,146.80
2018-03-06T17:12:53.889Z,144.70
2018-03-06T17:15:23.962Z,142.77
2018-03-06T17:17:52.081Z,151.07
2018-03-06T17:20:20.248Z,148.37
2018-03-06T17:22:48.381Z,154.07
2018-03-06T17:25:16.524Z,158.47
2018-03-06T17:27:45.906Z,152.50
2018-03-06T17:30:14.049Z,143.33
2018-03-06T17:32:44.216Z,151.03
2018-03-06T17:35:13.129Z,174.70
2018-03-06T17:37:42.714Z,193.80
2018-03-06T17:40:11.654Z,164.97
2018-03-06T17:42:40.562Z,159.60
2018-03-06T17:45:10.239Z,164.73
2018-03-06T17:47:38.376Z,149.03
2018-03-06T17:50:07.281Z,136.90
2018-03-06T17:52:37.409Z,152.97
2018-03-06T17:55:05.549Z,151.90
2018-03-06T17:57:33.726Z,156.73
2018-03-06T18:00:02.401Z,144.10
2018-03-06T18:02:35.858Z,156.23
2018-03-06T18:05:04.014Z,152.80
2018-03-06T18:07:32.136Z,169.30
2018-03-06T18:10:00.292Z,150.00
2018-03-06T18:12:30.814Z,154.63
2018-03-06T18:14:58.956Z,171.53
2018-03-06T18:17:27.848Z,153.23
2018-03-06T18:19:56.903Z,153.57
2018-03-06T18:22:26.825Z,166.10
2018-03-06T18:24:54.977Z,157.73
2018-03-06T18:27:23.881Z,150.13
2018-03-06T18:29:52.050Z,144.53
2018-03-06T18:32:20.166Z,162.63
2018-03-06T18:34:49.079Z,145.90
2018-03-06T18:37:19.279Z,153.53
2018-03-06T18:39:49.253Z,168.67
2018-03-06T18:42:17.390Z,167.33
2018-03-06T18:44:46.923Z,157.70
2018-03-06T18:47:15.045Z,139.83
2018-03-06T18:50:05.669Z,154.97
2018-03-06T18:52:33.784Z,161.80
2018-03-06T18:55:01.929Z,145.20
2018-03-06T18:57:30.089Z,157.83
2018-03-06T19:03:10.818Z,147.80
2018-03-06T19:05:50.905Z,141.53
2018-03-06T19:08:19.813Z,151.03
2018-03-06T19:10:48.309Z,151.57
2018-03-06T19:13:16.420Z,135.17
2018-03-06T19:15:45.877Z,140.60
2018-03-06T19:18:15.432Z,141.17
2018-03-06T19:20:43.584Z,153.43
2018-03-06T19:23:11.725Z,143.73
2018-03-06T19:25:40.309Z,159.43
2018-03-06T19:28:08.454Z,146.10
2018-03-06T19:30:37.722Z,156.67
2018-03-06T19:33:05.845Z,148.23
2018-03-06T19:35:34.761Z,160.63
2018-03-06T19:38:02.922Z,143.07
2018-03-06T19:40:32.396Z,148.97
2018-03-06T19:43:01.841Z,149.57
2018-03-06T19:45:30.038Z,138.37
2018-03-06T19:47:58.163Z,156.23
2018-03-06T19:50:27.031Z,164.07
2018-03-06T19:52:55.153Z,144.37
2018-03-06T19:55:23.793Z,165.83
2018-03-06T19:57:51.954Z,155.40
2018-03-06T20:00:21.721Z,152.60
2018-03-06T20:02:49.859Z,154.30
2018-03-06T20:05:18.027Z,161.93
2018-03-06T20:07:46.307Z,146.07
2018-03-06T20:10:15.411Z,162.13
2018-03-06T20:12:44.326Z,160.80
2018-03-06T20:15:16.301Z,168.97
2018-03-06T20:17:44.424Z,160.97
2018-03-06T20:20:13.358Z,152.50
2018-03-06T20:22:42.312Z,153.67
2018-03-06T20:25:16.227Z,149.97
2018-03-06T20:27:45.148Z,150.07
2018-03-06T20:30:19.372Z,143.73
2018-03-06T20:32:53.332Z,156.63
2018-03-06T20:35:21.489Z,144.33
2018-03-06T20:37:49.658Z,166.07
2018-03-06T20:40:23.521Z,141.43
2018-03-06T20:42:51.640Z,138.27
2018-03-06T20:45:19.766Z,143.90
2018-03-06T20:47:47.921Z,160.13
2018-03-06T20:50:18.098Z,157.20
2018-03-06T20:52:52.000Z,143.20
2018-03-06T20:55:20.134Z,181.97
2018-03-06T20:57:49.046Z,146.03
2018-03-06T21:00:17.178Z,150.20
2018-03-06T21:02:45.337Z,143.50
2018-03-06T21:05:13.477Z,162.57
2018-03-06T21:07:41.617Z,140.07
2018-03-06T21:10:10.509Z,148.27
2018-03-06T21:12:39.411Z,145.50
2018-03-06T21:15:07.996Z,149.77
2018-03-06T21:17:36.904Z,147.63
2018-03-06T21:20:05.024Z,143.70
2018-03-06T21:22:34.372Z,147.33
2018-03-06T21:25:02.543Z,153.63
2018-03-06T21:27:30.684Z,144.93
2018-03-06T21:29:58.804Z,168.07
2018-03-06T21:32:26.966Z,136.17
2018-03-06T21:34:55.105Z,138.40
2018-03-06T21:37:23.241Z,142.23
2018-03-06T21:39:51.449Z,139.03
2018-03-06T21:42:19.998Z,135.80
2018-03-06T21:44:48.123Z,144.03
2018-03-06T21:47:17.033Z,159.67
2018-03-06T21:49:45.154Z,150.57
2018-03-06T21:52:13.356Z,163.97
2018-03-06T21:54:42.325Z,160.67
2018-03-06T21:57:10.969Z,146.70
2018-03-06T21:59:39.128Z,151.27
2018-03-06T22:02:07.277Z,146.90
2018-03-06T22:04:36.200Z,156.10
2018-03-06T22:07:04.360Z,147.87
2018-03-06T22:09:33.241Z,156.90
2018-03-06T22:12:02.149Z,161.40
2018-03-06T22:14:30.852Z,159.17
2018-03-06T22:16:59.000Z,156.20
2018-03-06T22:19:27.978Z,156.67
2018-03-06T22:21:56.920Z,161.13
2018-03-06T22:24:25.576Z,174.67
2018-03-06T22:26:53.725Z,160.30
2018-03-06T22:29:21.853Z,143.83
2018-03-06T22:31:50.501Z,139.87
2018-03-06T22:34:19.392Z,148.97
2018-03-06T22:36:48.295Z,158.30
2018-03-06T22:39:16.415Z,156.03
2018-03-06T22:41:44.565Z,150.27
2018-03-06T22:44:12.693Z,152.13
2018-03-06T22:46:41.597Z,144.17
2018-03-06T22:49:10.485Z,152.63
2018-03-06T22:51:41.555Z,157.00
2018-03-06T22:54:09.687Z,154.70
2018-03-06T22:56:38.608Z,156.03
2018-03-06T22:59:07.424Z,148.60
2018-03-06T23:01:36.388Z,149.97
2018-03-06T23:04:04.517Z,146.70
2018-03-06T23:06:32.677Z,151.67
2018-03-06T23:09:00.812Z,140.27
2018-03-06T23:11:28.967Z,152.53
2018-03-06T23:13:57.830Z,152.03
2018-03-06T23:16:25.941Z,154.50
2018-03-06T23:18:54.119Z,147.63
2018-03-06T23:21:22.271Z,163.07
2018-03-06T23:23:51.658Z,156.03
2018-03-06T23:26:19.766Z,148.37
2018-03-06T23:28:47.905Z,143.33
2018-03-06T23:31:16.005Z,144.20
2018-03-06T23:33:44.934Z,162.07
2018-03-06T23:36:14.159Z,139.40
2018-03-06T23:38:42.296Z,139.00
2018-03-06T23:41:10.399Z,146.53
2018-03-06T23:43:38.610Z,138.50
2018-03-06T23:46:07.494Z,170.97
2018-03-06T23:48:36.398Z,150.87
2018-03-06T23:51:05.273Z,148.53
2018-03-06T23:53:34.167Z,154.87
2018-03-06T23:56:02.749Z,164.37
2018-03-06T23:58:31.658Z,142.20
